createdAt,value
2019-04-16T00:00:12.066Z,2.10
2019-04-16T00:01:11.237Z,2.40
2019-04-16T00:02:10.515Z,2.10
2019-04-16T00:03:10.504Z,2.20
2019-04-16T00:04:10.499Z,2.00
2019-04-16T00:05:10.490Z,2.20
2019-04-16T00:06:10.462Z,2.20
2019-04-16T00:07:10.464Z,2.20
2019-04-16T00:08:26.619Z,2.20
2019-04-16T00:09:11.450Z,2.10
2019-04-16T00:10:10.428Z,2.20
2019-04-16T00:11:10.427Z,1.90
2019-04-16T00:12:10.423Z,1.90
2019-04-16T00:13:10.383Z,1.90
2019-04-16T00:14:10.388Z,2.20
2019-04-16T00:15:10.400Z,2.20
2019-04-16T00:16:13.024Z,2.10
2019-04-16T00:17:10.375Z,2.10
2019-04-16T00:18:10.331Z,2.10
2019-04-16T00:19:10.336Z,2.10
2019-04-16T00:20:10.323Z,2.10
2019-04-16T00:21:10.748Z,2.20
2019-04-16T00:22:12.333Z,2.10
2019-04-16T00:23:10.290Z,2.00
2019-04-16T00:24:10.265Z,2.00
2019-04-16T00:25:10.254Z,2.20
2019-04-16T00:26:10.240Z,2.20
2019-04-16T00:27:10.241Z,2.30
2019-04-16T00:28:10.305Z,2.20
2019-04-16T00:29:10.226Z,2.00
2019-04-16T00:30:10.220Z,2.00
2019-04-16T00:31:10.187Z,2.30
2019-04-16T00:32:10.182Z,2.20
2019-04-16T00:33:10.796Z,2.10
2019-04-16T00:34:13.341Z,2.10
2019-04-16T00:35:10.153Z,1.90
2019-04-16T00:36:10.191Z,2.20
2019-04-16T00:37:10.116Z,2.00
2019-04-16T00:38:10.114Z,1.90
2019-04-16T00:39:10.110Z,2.00
2019-04-16T00:40:10.102Z,2.20
2019-04-16T00:41:10.095Z,2.10
2019-04-16T00:42:10.059Z,2.00
2019-04-16T00:43:10.056Z,2.20
2019-04-16T00:44:10.047Z,2.10
2019-04-16T00:45:10.053Z,2.30
2019-04-16T00:46:11.521Z,2.10
2019-04-16T00:47:10.054Z,2.20
2019-04-16T00:48:10.033Z,2.10
2019-04-16T00:49:10.032Z,1.80
2019-04-16T00:50:10.041Z,2.10
2019-04-16T00:51:09.965Z,2.10
2019-04-16T00:52:09.959Z,2.00
2019-04-16T00:53:09.953Z,2.10
2019-04-16T00:54:11.247Z,2.00
2019-04-16T00:55:13.674Z,2.00
2019-04-16T00:56:09.911Z,2.00
2019-04-16T00:57:09.889Z,2.10
2019-04-16T00:58:09.891Z,2.20
2019-04-16T00:59:09.901Z,2.00
2019-04-16T01:00:09.876Z,2.30
2019-04-16T01:01:09.860Z,2.20
2019-04-16T01:02:09.843Z,2.30
2019-04-16T01:03:09.830Z,2.10
2019-04-16T01:04:09.842Z,2.00
2019-04-16T01:05:09.809Z,2.00
2019-04-16T01:06:09.785Z,1.90
2019-04-16T01:07:09.791Z,2.30
2019-04-16T01:08:09.784Z,2.10
2019-04-16T01:09:09.778Z,2.10
2019-04-16T01:10:09.781Z,2.10
2019-04-16T01:11:09.733Z,2.20
2019-04-16T01:12:09.738Z,2.10
2019-04-16T01:13:09.712Z,2.00
2019-04-16T01:14:09.719Z,2.00
2019-04-16T01:15:09.697Z,2.00
2019-04-16T01:16:09.684Z,2.10
2019-04-16T01:17:09.671Z,1.90
2019-04-16T01:18:09.663Z,1.80
2019-04-16T01:19:10.909Z,1.90
2019-04-16T01:20:12.862Z,2.00
2019-04-16T01:21:13.767Z,2.00
2019-04-16T01:22:10.796Z,2.10
2019-04-16T01:23:09.764Z,1.90
2019-04-16T01:24:09.754Z,1.80
2019-04-16T01:25:09.748Z,2.10
2019-04-16T01:26:09.590Z,2.10
2019-04-16T01:27:09.552Z,2.10
2019-04-16T01:28:09.546Z,2.00
2019-04-16T01:29:09.525Z,2.00
2019-04-16T01:30:09.517Z,2.00
2019-04-16T01:31:09.526Z,2.00
2019-04-16T01:32:11.418Z,1.80
2019-04-16T01:33:14.421Z,2.10
2019-04-16T01:34:10.533Z,1.90
2019-04-16T01:35:09.466Z,1.90
2019-04-16T01:36:09.473Z,2.00
2019-04-16T01:37:09.451Z,1.80
2019-04-16T01:38:09.437Z,1.80
2019-04-16T01:39:17.402Z,2.10
2019-04-16T01:40:10.441Z,2.00
2019-04-16T01:41:09.398Z,1.90
2019-04-16T01:42:09.396Z,1.90
2019-04-16T01:43:09.399Z,1.90
2019-04-16T01:44:09.386Z,1.80
2019-04-16T01:45:09.352Z,1.80
2019-04-16T01:46:09.349Z,1.90
2019-04-16T01:47:09.328Z,2.10
2019-04-16T01:48:09.329Z,2.00
2019-04-16T01:49:10.515Z,2.00
2019-04-16T01:50:12.978Z,2.20
2019-04-16T01:51:09.300Z,2.10
2019-04-16T01:52:09.279Z,2.00
2019-04-16T01:53:09.275Z,2.00
2019-04-16T01:54:09.250Z,1.90
2019-04-16T01:55:09.238Z,1.90
2019-04-16T01:56:09.237Z,2.00
2019-04-16T01:57:09.210Z,1.90
2019-04-16T01:58:09.197Z,2.00
2019-04-16T01:59:09.203Z,2.00
2019-04-16T02:00:09.321Z,1.90
2019-04-16T02:01:11.192Z,1.90
2019-04-16T02:02:09.153Z,1.80
2019-04-16T02:03:09.146Z,2.00
2019-04-16T02:04:09.372Z,2.30
2019-04-16T02:05:09.140Z,2.00
2019-04-16T02:06:09.119Z,2.00
2019-04-16T02:07:09.123Z,1.90
2019-04-16T02:08:09.165Z,2.00
2019-04-16T02:09:21.974Z,2.00
2019-04-16T02:10:10.069Z,2.10
2019-04-16T02:11:10.662Z,1.80
2019-04-16T02:12:12.979Z,1.90
2019-04-16T02:13:09.029Z,2.00
2019-04-16T02:14:09.021Z,2.00
2019-04-16T02:15:09.007Z,2.10
2019-04-16T02:16:09.016Z,2.20
2019-04-16T02:17:09.008Z,2.00
2019-04-16T02:18:09.001Z,2.00
2019-04-16T02:19:08.993Z,1.80
2019-04-16T02:20:08.950Z,2.10
2019-04-16T02:21:10.741Z,2.10
2019-04-16T02:22:12.597Z,1.90
2019-04-16T02:23:08.916Z,2.00
2019-04-16T02:24:08.927Z,2.00
2019-04-16T02:25:08.910Z,1.90
2019-04-16T02:26:08.887Z,2.20
2019-04-16T02:27:08.878Z,1.90
2019-04-16T02:28:08.884Z,1.90
2019-04-16T02:29:08.884Z,2.10
2019-04-16T02:30:08.841Z,1.90
2019-04-16T02:31:13.932Z,1.70
2019-04-16T02:32:09.860Z,2.00
2019-04-16T02:33:08.821Z,2.00
2019-04-16T02:34:08.844Z,2.00
2019-04-16T02:35:08.794Z,2.00
2019-04-16T02:36:08.975Z,1.90
2019-04-16T02:37:08.829Z,1.80
2019-04-16T02:38:12.301Z,2.10
2019-04-16T02:39:08.754Z,2.10
2019-04-16T02:40:08.896Z,1.90
2019-04-16T02:41:08.715Z,2.00
2019-04-16T02:42:08.726Z,1.90
2019-04-16T02:43:08.922Z,1.80
2019-04-16T02:44:14.205Z,1.70
2019-04-16T02:45:09.670Z,2.00
2019-04-16T02:46:08.704Z,1.90
2019-04-16T02:47:08.848Z,1.80
2019-04-16T02:48:14.771Z,1.90
2019-04-16T02:49:09.632Z,2.10
2019-04-16T02:50:08.632Z,1.90
2019-04-16T02:51:08.714Z,1.80
2019-04-16T02:52:15.008Z,1.80
2019-04-16T02:53:09.586Z,2.10
2019-04-16T02:54:08.591Z,1.80
2019-04-16T02:55:10.513Z,2.00
2019-04-16T02:56:08.573Z,2.20
2019-04-16T02:57:08.536Z,2.00
2019-04-16T02:58:08.531Z,2.10
2019-04-16T02:59:12.275Z,1.90
2019-04-16T03:00:08.518Z,2.00
2019-04-16T03:01:08.535Z,2.00
2019-04-16T03:02:08.482Z,2.00
2019-04-16T03:03:08.470Z,2.00
2019-04-16T03:04:08.470Z,1.90
2019-04-16T03:05:08.496Z,2.10
2019-04-16T03:06:08.433Z,1.80
2019-04-16T03:07:08.431Z,2.00
2019-04-16T03:08:08.422Z,1.90
2019-04-16T03:09:09.776Z,2.10
2019-04-16T03:10:12.079Z,1.90
2019-04-16T03:11:09.434Z,2.00
2019-04-16T03:12:08.382Z,1.80
2019-04-16T03:13:08.350Z,1.70
2019-04-16T03:14:08.338Z,2.00
2019-04-16T03:15:08.375Z,1.90
2019-04-16T03:16:08.583Z,2.00
2019-04-16T03:17:10.608Z,1.90
2019-04-16T03:18:08.293Z,2.00
2019-04-16T03:19:08.296Z,2.10
2019-04-16T03:20:08.278Z,2.00
2019-04-16T03:21:08.264Z,2.00
2019-04-16T03:22:08.266Z,1.90
2019-04-16T03:23:08.250Z,1.90
2019-04-16T03:24:09.538Z,2.00
2019-04-16T03:25:12.567Z,1.90
2019-04-16T03:26:09.201Z,1.80
2019-04-16T03:27:08.220Z,1.90
2019-04-16T03:28:08.187Z,2.00
2019-04-16T03:29:08.169Z,1.80
2019-04-16T03:30:08.171Z,2.00
2019-04-16T03:31:09.668Z,1.80
2019-04-16T03:32:13.455Z,1.90
2019-04-16T03:33:13.748Z,2.00
2019-04-16T03:34:09.126Z,2.00
2019-04-16T03:35:08.147Z,2.10
2019-04-16T03:36:08.098Z,1.90
2019-04-16T03:37:08.108Z,2.00
2019-04-16T03:38:08.070Z,1.80
2019-04-16T03:39:11.990Z,2.00
2019-04-16T03:40:17.040Z,1.90
2019-04-16T03:41:09.040Z,2.10
2019-04-16T03:42:08.020Z,2.00
2019-04-16T03:43:08.024Z,2.20
2019-04-16T03:44:08.021Z,2.00
2019-04-16T03:45:09.720Z,2.00
2019-04-16T03:46:12.121Z,1.80
2019-04-16T03:47:09.011Z,1.90
2019-04-16T03:48:07.993Z,2.00
2019-04-16T03:49:08.175Z,2.00
2019-04-16T03:50:07.953Z,2.00
2019-04-16T03:51:07.953Z,1.90
2019-04-16T03:52:09.382Z,1.90
2019-04-16T03:53:07.936Z,1.80
2019-04-16T03:54:07.916Z,2.00
2019-04-16T03:55:07.884Z,2.00
2019-04-16T03:56:07.872Z,1.70
2019-04-16T03:57:07.872Z,2.00
2019-04-16T03:58:07.843Z,2.00
2019-04-16T03:59:11.815Z,2.00
2019-04-16T04:00:11.225Z,2.00
2019-04-16T04:01:07.819Z,1.80
2019-04-16T04:02:07.805Z,1.80
2019-04-16T04:03:07.825Z,1.90
2019-04-16T04:04:07.783Z,1.90
2019-04-16T04:05:07.854Z,1.80
2019-04-16T04:06:08.090Z,1.90
2019-04-16T04:07:08.782Z,2.00
2019-04-16T04:08:07.736Z,2.00
2019-04-16T04:09:07.711Z,1.70
2019-04-16T04:10:07.719Z,1.80
2019-04-16T04:11:10.443Z,1.80
2019-04-16T04:12:09.635Z,2.00
2019-04-16T04:13:08.671Z,1.80
2019-04-16T04:14:07.664Z,2.10
2019-04-16T04:15:07.642Z,1.90
2019-04-16T04:16:07.954Z,1.90
2019-04-16T04:17:07.821Z,2.00
2019-04-16T04:18:11.281Z,2.10
2019-04-16T04:19:11.246Z,1.90
2019-04-16T04:20:08.602Z,2.00
2019-04-16T04:21:07.598Z,1.90
2019-04-16T04:22:07.581Z,1.80
2019-04-16T04:23:07.582Z,1.90
2019-04-16T04:24:07.545Z,1.70
2019-04-16T04:25:07.561Z,1.80
2019-04-16T04:26:08.844Z,2.00
2019-04-16T04:27:07.523Z,2.10
2019-04-16T04:28:07.499Z,2.10
2019-04-16T04:29:07.809Z,1.70
2019-04-16T04:30:07.498Z,2.00
2019-04-16T04:31:07.474Z,1.90
2019-04-16T04:32:07.543Z,1.80
2019-04-16T04:33:09.651Z,2.00
2019-04-16T04:34:09.981Z,1.90
2019-04-16T04:35:07.441Z,2.00
2019-04-16T04:36:07.418Z,1.90
2019-04-16T04:37:07.404Z,1.80
2019-04-16T04:38:07.541Z,2.00
2019-04-16T04:39:09.953Z,2.00
2019-04-16T04:40:08.366Z,1.70
2019-04-16T04:41:07.852Z,2.10
2019-04-16T04:42:07.366Z,2.00
2019-04-16T04:43:07.355Z,1.80
2019-04-16T04:44:07.356Z,2.10
2019-04-16T04:45:08.937Z,2.20
2019-04-16T04:46:12.859Z,1.90
2019-04-16T04:47:08.295Z,1.80
2019-04-16T04:48:10.566Z,1.80
2019-04-16T04:49:07.261Z,1.90
2019-04-16T04:50:07.261Z,1.80
2019-04-16T04:51:08.736Z,2.00
2019-04-16T04:52:07.232Z,2.00
2019-04-16T04:53:07.226Z,1.80
2019-04-16T04:54:07.230Z,1.90
2019-04-16T04:55:07.203Z,2.00
2019-04-16T04:56:07.197Z,2.00
2019-04-16T04:57:07.173Z,1.90
2019-04-16T04:58:07.167Z,1.90
2019-04-16T04:59:07.163Z,2.10
2019-04-16T05:00:08.422Z,2.10
2019-04-16T05:01:09.561Z,2.00
2019-04-16T05:02:10.868Z,2.00
2019-04-16T05:03:08.114Z,1.90
2019-04-16T05:04:07.106Z,2.00
2019-04-16T05:05:07.104Z,1.80
2019-04-16T05:06:07.078Z,2.00
2019-04-16T05:07:07.057Z,2.00
2019-04-16T05:08:07.079Z,1.80
2019-04-16T05:09:07.060Z,1.70
2019-04-16T05:10:07.340Z,1.80
2019-04-16T05:11:07.017Z,1.70
2019-04-16T05:12:08.181Z,1.70
2019-04-16T05:13:07.009Z,1.80
2019-04-16T05:14:06.988Z,1.60
2019-04-16T05:15:06.974Z,1.60
2019-04-16T05:16:07.166Z,1.60
2019-04-16T05:17:07.581Z,1.70
2019-04-16T05:18:09.922Z,1.70
2019-04-16T05:19:06.925Z,1.60
2019-04-16T05:20:06.919Z,1.40
2019-04-16T05:21:06.922Z,1.60
2019-04-16T05:22:06.892Z,1.30
2019-04-16T05:23:06.897Z,1.50
2019-04-16T05:24:06.901Z,1.40
2019-04-16T05:25:06.855Z,1.40
2019-04-16T05:26:09.712Z,1.40
2019-04-16T05:27:08.543Z,1.50
2019-04-16T05:28:11.637Z,1.40
2019-04-16T05:29:07.818Z,1.50
2019-04-16T05:30:06.798Z,1.50
2019-04-16T05:31:06.784Z,1.40
2019-04-16T05:32:06.778Z,1.40
2019-04-16T05:33:06.761Z,1.50
2019-04-16T05:34:06.821Z,1.30
2019-04-16T05:35:10.196Z,1.40
2019-04-16T05:36:06.727Z,1.30
2019-04-16T05:37:06.721Z,1.20
2019-04-16T05:38:06.705Z,1.30
2019-04-16T05:39:06.695Z,1.40
2019-04-16T05:40:06.695Z,1.40
2019-04-16T05:41:13.062Z,1.30
2019-04-16T05:42:07.673Z,1.40
2019-04-16T05:43:06.655Z,1.30
2019-04-16T05:44:06.656Z,1.30
2019-04-16T05:45:06.661Z,1.20
2019-04-16T05:46:08.982Z,1.30
2019-04-16T05:47:06.632Z,1.30
2019-04-16T05:48:06.601Z,1.30
2019-04-16T05:49:06.593Z,1.20
2019-04-16T05:50:06.582Z,1.20
2019-04-16T05:51:06.571Z,1.30
2019-04-16T05:52:06.571Z,1.20
2019-04-16T05:53:08.386Z,1.30
2019-04-16T05:54:08.459Z,1.20
2019-04-16T05:55:07.520Z,1.10
2019-04-16T05:56:06.527Z,1.20
2019-04-16T05:57:06.550Z,1.00
2019-04-16T05:58:06.492Z,1.20
2019-04-16T05:59:06.518Z,1.20
2019-04-16T06:00:10.056Z,1.20
2019-04-16T06:01:06.455Z,1.10
2019-04-16T06:02:06.491Z,1.00
2019-04-16T06:03:06.439Z,1.30
2019-04-16T06:04:06.410Z,1.20
2019-04-16T06:05:06.406Z,1.00
2019-04-16T06:06:06.412Z,1.10
2019-04-16T06:07:07.726Z,1.50
2019-04-16T06:08:09.078Z,1.90
2019-04-16T06:09:06.377Z,2.00
2019-04-16T06:10:07.026Z,2.30
2019-04-16T06:11:06.335Z,2.40
2019-04-16T06:12:08.913Z,2.50
2019-04-16T06:13:06.331Z,2.10
2019-04-16T06:14:06.408Z,2.40
2019-04-16T06:15:06.296Z,2.30
2019-04-16T06:16:06.275Z,2.20
2019-04-16T06:17:06.663Z,2.00
2019-04-16T06:18:06.257Z,2.40
2019-04-16T06:19:08.490Z,1.90
2019-04-16T06:20:07.222Z,2.30
2019-04-16T06:21:06.232Z,1.60
2019-04-16T06:22:06.218Z,1.60
2019-04-16T06:23:06.218Z,1.50
2019-04-16T06:24:06.192Z,1.80
2019-04-16T06:25:09.225Z,1.70
2019-04-16T06:26:06.169Z,1.70
2019-04-16T06:27:06.195Z,1.90
2019-04-16T06:28:06.140Z,1.70
2019-04-16T06:29:06.145Z,1.60
2019-04-16T06:30:06.116Z,1.70
2019-04-16T06:31:09.930Z,1.70
2019-04-16T06:32:08.470Z,1.60
2019-04-16T06:33:07.091Z,2.00
2019-04-16T06:34:06.087Z,1.70
2019-04-16T06:35:06.059Z,1.40
2019-04-16T06:36:06.056Z,1.70
2019-04-16T06:37:06.076Z,1.50
2019-04-16T06:38:06.116Z,1.60
2019-04-16T06:39:06.013Z,1.80
2019-04-16T06:40:06.001Z,1.60
2019-04-16T06:41:05.997Z,1.40
2019-04-16T06:42:05.985Z,1.70
2019-04-16T06:43:05.992Z,1.70
2019-04-16T06:44:05.953Z,1.70
2019-04-16T06:45:05.964Z,1.50
2019-04-16T06:46:08.529Z,1.70
2019-04-16T06:47:10.523Z,1.70
2019-04-16T06:48:06.939Z,1.60
2019-04-16T06:49:05.917Z,1.60
2019-04-16T06:50:05.901Z,1.60
2019-04-16T06:51:05.877Z,1.70
2019-04-16T06:52:05.868Z,1.60
2019-04-16T06:53:05.868Z,1.80
2019-04-16T06:54:05.849Z,1.80
2019-04-16T06:55:05.854Z,2.00
2019-04-16T06:56:08.572Z,1.60
2019-04-16T06:57:05.807Z,1.60
2019-04-16T06:58:05.817Z,1.80
2019-04-16T06:59:05.800Z,1.80
2019-04-16T07:00:07.303Z,1.80
2019-04-16T07:01:06.912Z,1.80
2019-04-16T07:02:07.694Z,1.80
2019-04-16T07:03:05.749Z,1.80
2019-04-16T07:04:06.922Z,1.70
2019-04-16T07:05:05.713Z,1.90
2019-04-16T07:06:05.700Z,2.00
2019-04-16T07:07:08.578Z,1.80
2019-04-16T07:08:05.742Z,1.80
2019-04-16T07:09:05.691Z,1.90
2019-04-16T07:10:05.664Z,1.90
2019-04-16T07:11:05.693Z,1.90
2019-04-16T07:12:05.646Z,1.90
2019-04-16T07:13:10.259Z,1.70
2019-04-16T07:14:06.749Z,2.20
2019-04-16T07:15:05.642Z,1.90
2019-04-16T07:16:05.592Z,1.80
2019-04-16T07:17:05.579Z,1.90
2019-04-16T07:18:06.305Z,2.00
2019-04-16T07:19:10.196Z,1.80
2019-04-16T07:20:06.608Z,2.10
2019-04-16T07:21:05.695Z,1.80
2019-04-16T07:22:05.521Z,2.10
2019-04-16T07:23:05.517Z,1.70
2019-04-16T07:24:05.601Z,1.90
2019-04-16T07:25:06.439Z,1.60
2019-04-16T07:26:05.602Z,2.00
2019-04-16T07:27:05.545Z,1.70
2019-04-16T07:28:05.471Z,2.00
2019-04-16T07:29:05.447Z,1.90
2019-04-16T07:30:08.131Z,1.90
2019-04-16T07:31:05.491Z,1.80
2019-04-16T07:32:05.541Z,1.90
2019-04-16T07:33:05.411Z,1.90
2019-04-16T07:34:05.414Z,2.10
2019-04-16T07:35:05.378Z,1.90
2019-04-16T07:36:05.393Z,2.00
2019-04-16T07:37:05.361Z,2.00
2019-04-16T07:38:06.668Z,2.10
2019-04-16T07:39:06.115Z,1.90
2019-04-16T07:40:08.689Z,1.80
2019-04-16T07:41:05.311Z,2.40
2019-04-16T07:42:10.606Z,2.50
2019-04-16T07:43:06.336Z,2.50
2019-04-16T07:44:10.247Z,2.70
2019-04-16T07:45:11.689Z,2.40
2019-04-16T07:46:06.265Z,2.40
2019-04-16T07:47:05.383Z,2.60
2019-04-16T07:48:06.747Z,2.70
2019-04-16T07:49:05.242Z,2.00
2019-04-16T07:50:05.277Z,2.40
2019-04-16T07:51:05.562Z,3.00
2019-04-16T07:52:07.806Z,3.20
2019-04-16T07:53:06.196Z,2.70
2019-04-16T07:54:05.248Z,3.10
2019-04-16T07:55:05.185Z,3.30
2019-04-16T07:56:05.195Z,3.50
2019-04-16T07:57:05.197Z,3.30
2019-04-16T07:58:05.155Z,3.30
2019-04-16T07:59:05.155Z,2.80
2019-04-16T08:00:08.207Z,2.70
2019-04-16T08:01:05.171Z,3.90
2019-04-16T08:02:05.081Z,3.90
2019-04-16T08:03:05.175Z,5.00
2019-04-16T08:04:05.179Z,3.50
2019-04-16T08:05:08.944Z,3.90
2019-04-16T08:06:05.032Z,3.60
2019-04-16T08:07:05.053Z,3.00
2019-04-16T08:08:05.007Z,2.70
2019-04-16T08:09:05.015Z,3.00
2019-04-16T08:10:04.986Z,2.80
2019-04-16T08:11:04.982Z,2.50
2019-04-16T08:12:10.852Z,2.50
2019-04-16T08:13:05.951Z,2.70
2019-04-16T08:14:08.908Z,2.60
2019-04-16T08:15:13.863Z,2.80
2019-04-16T08:16:05.913Z,2.80
2019-04-16T08:17:05.088Z,2.80
2019-04-16T08:18:04.973Z,2.70
2019-04-16T08:19:04.900Z,2.70
2019-04-16T08:20:04.882Z,2.40
2019-04-16T08:21:10.216Z,2.50
2019-04-16T08:22:05.879Z,2.80
2019-04-16T08:23:04.864Z,3.00
2019-04-16T08:24:05.198Z,2.70
2019-04-16T08:25:04.831Z,2.80
2019-04-16T08:26:11.505Z,2.70
2019-04-16T08:27:05.787Z,2.80
2019-04-16T08:28:06.943Z,2.40
2019-04-16T08:29:04.794Z,2.60
2019-04-16T08:30:04.757Z,2.70
2019-04-16T08:31:10.505Z,2.40
2019-04-16T08:32:05.919Z,2.50
2019-04-16T08:33:04.738Z,2.50
2019-04-16T08:34:05.047Z,2.60
2019-04-16T08:35:04.724Z,2.50
2019-04-16T08:36:04.708Z,2.70
2019-04-16T08:37:07.966Z,2.40
2019-04-16T08:38:04.670Z,2.60
2019-04-16T08:39:06.476Z,2.40
2019-04-16T08:40:04.654Z,2.50
2019-04-16T08:41:04.971Z,2.40
2019-04-16T08:42:04.623Z,2.50
2019-04-16T08:43:04.779Z,2.40
2019-04-16T08:44:04.840Z,2.60
2019-04-16T08:45:07.364Z,2.50
2019-04-16T08:46:04.576Z,2.40
2019-04-16T08:47:04.562Z,2.40
2019-04-16T08:48:04.560Z,2.30
2019-04-16T08:49:04.550Z,2.40
2019-04-16T08:50:04.627Z,2.20
2019-04-16T08:51:05.358Z,2.30
2019-04-16T08:52:09.676Z,2.20
2019-04-16T08:53:05.698Z,2.30
2019-04-16T08:54:04.549Z,2.40
2019-04-16T08:55:04.482Z,2.10
2019-04-16T08:56:04.464Z,2.40
2019-04-16T08:57:04.502Z,2.40
2019-04-16T08:58:06.343Z,2.30
2019-04-16T08:59:09.508Z,2.40
2019-04-16T09:00:05.459Z,2.20
2019-04-16T09:01:04.437Z,2.20
2019-04-16T09:02:04.425Z,2.40
2019-04-16T09:03:04.632Z,2.20
2019-04-16T09:04:04.396Z,1.90
2019-04-16T09:05:06.532Z,2.40
2019-04-16T09:06:05.383Z,2.30
2019-04-16T09:07:11.971Z,2.20
2019-04-16T09:08:12.614Z,2.20
2019-04-16T09:09:12.458Z,2.10
2019-04-16T09:10:16.236Z,2.10
2019-04-16T09:11:05.294Z,2.10
2019-04-16T09:12:07.933Z,2.40
2019-04-16T09:13:05.127Z,2.00
2019-04-16T09:14:04.271Z,2.40
2019-04-16T09:15:04.283Z,2.30
2019-04-16T09:16:04.436Z,2.10
2019-04-16T09:17:04.242Z,2.10
2019-04-16T09:18:04.220Z,2.20
2019-04-16T09:19:04.223Z,2.20
2019-04-16T09:20:05.157Z,2.30
2019-04-16T09:21:06.870Z,2.20
2019-04-16T09:22:05.177Z,2.30
2019-04-16T09:23:04.171Z,1.90
2019-04-16T09:24:08.811Z,2.40
2019-04-16T09:25:05.296Z,2.10
2019-04-16T09:26:12.927Z,2.00
2019-04-16T09:27:05.173Z,2.10
2019-04-16T09:28:07.576Z,2.10
2019-04-16T09:29:09.551Z,2.20
2019-04-16T09:30:05.102Z,1.90
2019-04-16T09:31:04.084Z,2.10
2019-04-16T09:32:04.088Z,2.00
2019-04-16T09:33:04.061Z,2.20
2019-04-16T09:34:06.370Z,2.20
2019-04-16T09:35:09.789Z,2.10
2019-04-16T09:36:05.068Z,2.00
2019-04-16T09:37:04.007Z,2.10
2019-04-16T09:38:03.993Z,2.00
2019-04-16T09:39:04.002Z,2.20
2019-04-16T09:40:15.882Z,1.90
2019-04-16T09:41:04.968Z,2.20
2019-04-16T09:42:03.962Z,1.80
2019-04-16T09:43:16.128Z,2.00
2019-04-16T09:44:04.930Z,2.20
2019-04-16T09:45:04.975Z,2.10
2019-04-16T09:46:10.924Z,2.00
2019-04-16T09:47:05.429Z,2.20
2019-04-16T09:48:04.037Z,2.00
2019-04-16T09:49:04.933Z,2.00
2019-04-16T09:50:09.807Z,1.90
2019-04-16T09:51:04.895Z,2.10
2019-04-16T09:52:04.107Z,2.10
2019-04-16T09:53:03.839Z,2.00
2019-04-16T09:54:03.826Z,1.90
2019-04-16T09:55:03.820Z,1.90
2019-04-16T09:56:03.816Z,1.90
2019-04-16T09:57:03.783Z,2.00
2019-04-16T09:58:06.908Z,2.10
2019-04-16T09:59:03.762Z,1.90
2019-04-16T10:00:03.760Z,2.00
2019-04-16T10:01:03.754Z,1.90
2019-04-16T10:02:03.736Z,2.20
2019-04-16T10:03:03.723Z,1.80
2019-04-16T10:04:03.712Z,1.80
2019-04-16T10:05:03.695Z,1.90
2019-04-16T10:06:05.551Z,1.90
2019-04-16T10:07:03.687Z,2.00
2019-04-16T10:08:03.655Z,1.80
2019-04-16T10:09:03.683Z,1.60
2019-04-16T10:10:03.633Z,1.60
2019-04-16T10:11:06.026Z,1.80
2019-04-16T10:12:05.024Z,1.60
2019-04-16T10:13:03.625Z,1.70
2019-04-16T10:14:03.606Z,1.40
2019-04-16T10:15:03.587Z,1.70
2019-04-16T10:16:03.619Z,1.80
2019-04-16T10:17:03.585Z,1.70
2019-04-16T10:18:03.550Z,1.60
2019-04-16T10:19:07.810Z,1.70
2019-04-16T10:20:03.541Z,1.80
2019-04-16T10:21:03.556Z,1.40
2019-04-16T10:22:03.535Z,1.60
2019-04-16T10:23:03.501Z,1.60
2019-04-16T10:24:03.493Z,1.50
2019-04-16T10:25:03.471Z,1.40
2019-04-16T10:26:03.478Z,1.80
2019-04-16T10:27:04.482Z,1.50
2019-04-16T10:28:05.082Z,1.50
2019-04-16T10:29:05.890Z,1.40
2019-04-16T10:30:03.416Z,1.50
2019-04-16T10:31:03.399Z,1.40
2019-04-16T10:32:03.417Z,1.40
2019-04-16T10:33:03.377Z,1.40
2019-04-16T10:34:03.373Z,1.40
2019-04-16T10:35:03.367Z,1.60
2019-04-16T10:36:04.893Z,1.40
2019-04-16T10:37:03.667Z,1.40
2019-04-16T10:38:03.325Z,1.30
2019-04-16T10:39:03.333Z,1.40
2019-04-16T10:40:04.873Z,1.30
2019-04-16T10:41:03.333Z,1.40
2019-04-16T10:42:03.285Z,1.30
2019-04-16T10:43:03.271Z,1.30
2019-04-16T10:44:03.389Z,1.40
2019-04-16T10:45:03.246Z,1.40
2019-04-16T10:46:03.258Z,1.40
2019-04-16T10:47:03.257Z,1.30
2019-04-16T10:48:03.225Z,1.50
2019-04-16T10:49:03.237Z,1.30
2019-04-16T10:50:03.238Z,1.40
2019-04-16T10:51:03.234Z,1.30
2019-04-16T10:52:03.213Z,1.40
2019-04-16T10:53:03.177Z,1.30
2019-04-16T10:54:03.245Z,1.40
2019-04-16T10:55:03.175Z,1.30
2019-04-16T10:56:03.243Z,1.30
2019-04-16T10:57:03.173Z,1.40
2019-04-16T10:58:03.188Z,1.30
2019-04-16T10:59:03.121Z,1.30
2019-04-16T11:00:03.253Z,1.20
2019-04-16T11:01:03.238Z,1.50
2019-04-16T11:02:03.124Z,1.40
2019-04-16T11:03:03.282Z,1.60
2019-04-16T11:04:04.860Z,1.50
2019-04-16T11:05:03.282Z,1.60
2019-04-16T11:06:03.152Z,1.70
2019-04-16T11:07:03.108Z,1.60
2019-04-16T11:08:04.224Z,1.50
2019-04-16T11:09:03.161Z,1.40
2019-04-16T11:10:03.185Z,1.70
2019-04-16T11:11:03.071Z,1.80
2019-04-16T11:12:05.387Z,1.80
2019-04-16T11:13:02.977Z,1.60
2019-04-16T11:14:02.934Z,1.60
2019-04-16T11:15:03.000Z,1.70
2019-04-16T11:16:03.076Z,1.80
2019-04-16T11:17:03.070Z,1.80
2019-04-16T11:18:03.295Z,3.50
2019-04-16T11:19:03.022Z,2.30
2019-04-16T11:20:03.192Z,2.40
2019-04-16T11:21:02.968Z,2.50
2019-04-16T11:22:04.042Z,2.50
2019-04-16T11:23:03.297Z,2.60
2019-04-16T11:24:03.134Z,2.40
2019-04-16T11:25:03.151Z,2.00
2019-04-16T11:26:02.812Z,2.50
2019-04-16T11:27:02.931Z,2.30
2019-04-16T11:28:02.811Z,2.50
2019-04-16T11:29:02.877Z,2.20
2019-04-16T11:30:02.896Z,2.40
2019-04-16T11:31:03.059Z,2.50
2019-04-16T11:32:03.073Z,3.50
2019-04-16T11:33:03.097Z,3.30
2019-04-16T11:34:03.038Z,3.10
2019-04-16T11:35:03.036Z,3.70
2019-04-16T11:36:17.435Z,3.30
2019-04-16T11:37:08.247Z,3.30
2019-04-16T11:38:03.703Z,3.30
2019-04-16T11:39:02.841Z,3.20
2019-04-16T11:40:03.209Z,3.50
2019-04-16T11:41:02.704Z,4.00
2019-04-16T11:42:02.773Z,3.70
2019-04-16T11:43:03.240Z,3.50
2019-04-16T11:44:14.199Z,3.00
2019-04-16T11:45:03.786Z,3.50
2019-04-16T11:46:03.060Z,3.00
2019-04-16T11:47:02.592Z,3.70
2019-04-16T11:48:02.727Z,3.50
2019-04-16T11:49:02.597Z,3.30
2019-04-16T11:50:02.599Z,3.20
2019-04-16T11:51:02.590Z,3.60
2019-04-16T11:52:02.898Z,3.80
2019-04-16T11:53:02.559Z,3.60
2019-04-16T11:54:03.085Z,3.40
2019-04-16T11:55:02.840Z,3.20
2019-04-16T11:56:02.888Z,3.80
2019-04-16T11:57:02.967Z,3.50
2019-04-16T11:58:02.697Z,3.60
2019-04-16T11:59:02.662Z,3.70
2019-04-16T12:00:07.747Z,3.40
2019-04-16T12:01:03.898Z,3.60
2019-04-16T12:02:02.867Z,3.90
2019-04-16T12:03:02.785Z,3.60
2019-04-16T12:04:02.605Z,4.40
2019-04-16T12:05:02.406Z,3.80
2019-04-16T12:06:02.496Z,3.80
2019-04-16T12:07:05.165Z,3.70
2019-04-16T12:08:02.510Z,3.90
2019-04-16T12:09:02.482Z,3.60
2019-04-16T12:10:02.506Z,3.80
2019-04-16T12:11:02.449Z,3.80
2019-04-16T12:12:02.315Z,3.80
2019-04-16T12:13:03.940Z,3.50
2019-04-16T12:14:04.080Z,3.40
2019-04-16T12:15:03.632Z,3.80
2019-04-16T12:16:02.283Z,3.90
2019-04-16T12:17:02.242Z,3.80
2019-04-16T12:18:02.191Z,3.60
2019-04-16T12:19:02.234Z,3.50
2019-04-16T12:20:02.556Z,3.30
2019-04-16T12:21:02.182Z,3.40
2019-04-16T12:22:02.237Z,3.60
2019-04-16T12:23:02.213Z,3.60
2019-04-16T12:24:02.145Z,3.70
2019-04-16T12:25:02.313Z,3.60
2019-04-16T12:26:02.146Z,3.90
2019-04-16T12:27:02.154Z,3.50
2019-04-16T12:28:06.432Z,3.70
2019-04-16T12:29:03.080Z,3.90
2019-04-16T12:30:02.206Z,3.80
2019-04-16T12:31:02.046Z,3.80
2019-04-16T12:32:04.301Z,3.80
2019-04-16T12:33:07.480Z,3.70
2019-04-16T12:34:03.052Z,3.70
2019-04-16T12:35:02.099Z,3.60
2019-04-16T12:36:01.986Z,3.50
2019-04-16T12:37:01.998Z,4.10
2019-04-16T12:38:02.041Z,3.80
2019-04-16T12:39:02.011Z,3.90
2019-04-16T12:40:02.461Z,4.20
2019-04-16T12:41:02.186Z,4.10
2019-04-16T12:42:02.103Z,4.00
2019-04-16T12:43:01.907Z,3.70
2019-04-16T12:44:02.370Z,4.10
2019-04-16T12:45:01.964Z,3.90
2019-04-16T12:46:01.892Z,3.60
2019-04-16T12:47:01.864Z,4.00
2019-04-16T12:48:01.896Z,3.90
2019-04-16T12:49:01.829Z,3.70
2019-04-16T12:50:01.866Z,3.80
2019-04-16T12:51:02.211Z,3.80
2019-04-16T12:52:01.832Z,3.60
2019-04-16T12:53:02.062Z,4.10
2019-04-16T12:54:01.857Z,3.90
2019-04-16T12:55:01.813Z,3.80
2019-04-16T12:56:06.318Z,4.10
2019-04-16T12:57:02.748Z,3.90
2019-04-16T12:58:02.053Z,4.70
2019-04-16T12:59:02.101Z,3.80
2019-04-16T13:00:01.737Z,3.70
2019-04-16T13:01:03.025Z,4.00
2019-04-16T13:02:01.691Z,3.60
2019-04-16T13:03:01.685Z,3.70
2019-04-16T13:04:01.674Z,4.10
2019-04-16T13:05:01.655Z,3.60
2019-04-16T13:06:02.475Z,3.60
2019-04-16T13:07:01.641Z,3.50
2019-04-16T13:08:01.614Z,3.60
2019-04-16T13:09:01.613Z,3.50
2019-04-16T13:10:01.604Z,3.90
2019-04-16T13:11:01.578Z,4.00
2019-04-16T13:12:01.574Z,4.40
2019-04-16T13:13:01.561Z,3.50
2019-04-16T13:14:01.566Z,3.80
2019-04-16T13:15:02.222Z,4.70
2019-04-16T13:16:01.528Z,3.90
2019-04-16T13:17:01.710Z,4.20
2019-04-16T13:18:01.732Z,3.90